createdAt,value
2022-08-06T00:00:07.791Z,22.28
2022-08-06T00:03:01.052Z,22.24
2022-08-06T00:06:03.433Z,22.18
2022-08-06T00:09:05.582Z,22.17
2022-08-06T00:12:10.749Z,22.12
2022-08-06T00:15:14.394Z,22.07
2022-08-06T00:18:18.132Z,22.09
2022-08-06T00:21:42.156Z,22.13
2022-08-06T00:24:42.714Z,22.16
2022-08-06T00:27:51.250Z,22.20
2022-08-06T00:30:54.434Z,22.13
2022-08-06T00:34:05.343Z,22.07
2022-08-06T00:37:18.383Z,22.12
2022-08-06T00:40:24.252Z,22.18
2022-08-06T00:43:39.608Z,22.15
2022-08-06T00:46:44.903Z,22.06
2022-08-06T00:49:49.953Z,22.04
2022-08-06T00:52:52.807Z,22.06
2022-08-06T00:56:01.193Z,21.86
2022-08-06T00:59:05.164Z,21.82
2022-08-06T01:02:14.722Z,21.69
2022-08-06T01:06:04.096Z,21.72
2022-08-06T01:08:41.569Z,21.70
2022-08-06T01:11:43.784Z,21.58
2022-08-06T01:15:02.510Z,21.48
2022-08-06T01:18:14.049Z,21.11
2022-08-06T01:22:29.702Z,20.72
2022-08-06T01:25:18.485Z,20.60
2022-08-06T01:28:28.621Z,20.43
2022-08-06T01:31:44.853Z,20.25
2022-08-06T01:34:53.347Z,19.98
2022-08-06T01:38:13.758Z,20.03
2022-08-06T01:41:54.949Z,20.23
2022-08-06T01:45:02.419Z,20.72
2022-08-06T01:48:08.103Z,20.99
2022-08-06T01:51:17.060Z,21.32
2022-08-06T01:54:20.968Z,21.57
2022-08-06T01:57:32.808Z,21.94
2022-08-06T02:00:49.691Z,22.18
2022-08-06T02:03:59.441Z,22.60
2022-08-06T02:07:04.835Z,22.68
2022-08-06T02:10:18.719Z,22.98
2022-08-06T02:13:23.599Z,23.04
2022-08-06T02:16:26.504Z,23.11
2022-08-06T02:19:47.903Z,23.17
2022-08-06T02:22:53.215Z,23.34
2022-08-06T02:25:56.797Z,23.30
2022-08-06T02:29:00.608Z,23.36
2022-08-06T02:32:02.779Z,23.34
2022-08-06T02:35:05.359Z,23.29
2022-08-06T02:38:29.392Z,23.23
2022-08-06T02:41:55.624Z,23.25
2022-08-06T02:45:04.685Z,23.41
2022-08-06T02:48:22.189Z,23.44
2022-08-06T02:52:10.545Z,23.48
2022-08-06T02:55:16.137Z,23.46
2022-08-06T02:58:36.588Z,23.14
2022-08-06T03:01:53.165Z,22.97
2022-08-06T03:04:58.678Z,23.00
2022-08-06T03:08:08.217Z,22.85
2022-08-06T03:11:13.494Z,22.80
2022-08-06T03:15:04.355Z,22.51
2022-08-06T03:17:42.941Z,22.46
2022-08-06T03:20:49.581Z,22.52
2022-08-06T03:23:53.247Z,22.35
2022-08-06T03:27:01.167Z,22.54
2022-08-06T03:30:05.557Z,22.47
2022-08-06T03:33:29.180Z,22.38
2022-08-06T03:36:38.160Z,22.25
2022-08-06T03:39:47.172Z,22.14
2022-08-06T03:42:55.465Z,22.09
2022-08-06T03:46:08.153Z,22.04
2022-08-06T03:49:15.403Z,22.26
2022-08-06T03:52:31.985Z,22.14
2022-08-06T03:55:36.880Z,21.92
2022-08-06T03:58:41.246Z,21.79
2022-08-06T04:01:50.530Z,21.68
2022-08-06T04:04:53.889Z,21.56
2022-08-06T04:07:59.133Z,21.54
2022-08-06T04:11:07.870Z,21.55
2022-08-06T04:14:32.045Z,21.66
2022-08-06T04:17:37.115Z,21.76
2022-08-06T04:20:48.235Z,21.71
2022-08-06T04:23:56.283Z,21.79
2022-08-06T04:27:00.730Z,21.86
2022-08-06T04:30:09.367Z,21.79
2022-08-06T04:33:17.559Z,21.90
2022-08-06T04:36:25.435Z,22.95
2022-08-06T04:39:38.014Z,23.32
2022-08-06T04:42:53.214Z,23.80
2022-08-06T04:46:14.190Z,23.08
2022-08-06T04:49:20.163Z,21.80
2022-08-06T04:52:36.392Z,22.00
2022-08-06T04:55:52.219Z,22.01
2022-08-06T04:59:09.074Z,22.10
2022-08-06T05:02:13.061Z,22.29
2022-08-06T05:05:16.973Z,22.33
2022-08-06T05:08:27.388Z,22.40
2022-08-06T05:11:35.527Z,22.49
2022-08-06T05:14:55.815Z,22.49
2022-08-06T05:19:16.729Z,22.46
2022-08-06T05:22:05.277Z,22.57
2022-08-06T05:25:09.909Z,22.74
2022-08-06T05:28:19.537Z,22.96
2022-08-06T05:31:38.673Z,23.27
2022-08-06T05:34:41.950Z,23.51
2022-08-06T05:38:01.543Z,23.73
2022-08-06T05:41:12.469Z,24.04
2022-08-06T05:44:16.018Z,24.24
2022-08-06T05:47:22.912Z,24.49
2022-08-06T05:50:29.343Z,24.30
2022-08-06T05:54:03.372Z,24.52
2022-08-06T05:57:20.056Z,24.41
2022-08-06T06:00:44.705Z,24.57
2022-08-06T06:03:48.915Z,24.57
2022-08-06T06:06:54.637Z,24.41
2022-08-06T06:10:03.555Z,24.37
2022-08-06T06:13:24.278Z,24.13
2022-08-06T06:16:31.681Z,24.11
2022-08-06T06:19:39.045Z,23.95
2022-08-06T06:23:07.876Z,23.92
2022-08-06T06:26:32.875Z,24.16
2022-08-06T06:30:05.821Z,24.08
2022-08-06T06:33:51.476Z,24.52
2022-08-06T06:37:41.159Z,24.74
2022-08-06T06:41:32.186Z,24.98
2022-08-06T06:45:04.095Z,25.15
2022-08-06T06:48:23.620Z,24.71
2022-08-06T06:51:56.465Z,24.69
2022-08-06T06:55:00.016Z,24.46
2022-08-06T06:58:12.528Z,24.36
2022-08-06T07:01:29.998Z,24.46
2022-08-06T07:04:38.965Z,24.65
2022-08-06T07:07:49.728Z,24.25
2022-08-06T07:10:56.326Z,24.32
2022-08-06T07:14:03.849Z,24.24
2022-08-06T07:17:46.162Z,24.28
2022-08-06T07:20:36.318Z,24.37
2022-08-06T07:24:06.544Z,24.68
2022-08-06T07:27:15.165Z,24.46
2022-08-06T07:30:21.332Z,24.28
2022-08-06T07:33:29.432Z,24.43
2022-08-06T07:36:57.197Z,24.49
2022-08-06T07:40:02.701Z,24.49
2022-08-06T07:43:25.196Z,24.59
2022-08-06T07:46:33.533Z,25.32
2022-08-06T07:50:00.224Z,25.35
2022-08-06T07:53:04.021Z,26.05
2022-08-06T07:56:07.304Z,26.26
2022-08-06T07:59:11.880Z,26.39
2022-08-06T08:02:17.473Z,25.30
2022-08-06T08:06:01.067Z,25.42
2022-08-06T08:09:08.299Z,25.58
2022-08-06T08:12:26.412Z,25.30
2022-08-06T08:15:43.200Z,24.91
2022-08-06T08:18:46.184Z,25.52
2022-08-06T08:21:49.744Z,25.59
2022-08-06T08:24:53.869Z,25.58
2022-08-06T08:27:57.506Z,25.73
2022-08-06T08:31:15.551Z,25.51
2022-08-06T08:34:27.212Z,26.26
2022-08-06T08:37:32.230Z,25.55
2022-08-06T08:40:35.885Z,25.72
2022-08-06T08:44:00.674Z,25.72
2022-08-06T08:47:12.424Z,24.95
2022-08-06T08:50:18.440Z,25.15
2022-08-06T08:53:45.516Z,25.18
2022-08-06T08:57:08.282Z,25.31
2022-08-06T09:00:12.612Z,24.86
2022-08-06T09:03:24.898Z,25.74
2022-08-06T09:06:30.568Z,24.95
2022-08-06T09:09:36.176Z,24.72
2022-08-06T09:12:44.891Z,24.18
2022-08-06T09:15:55.308Z,23.93
2022-08-06T09:18:57.499Z,23.80
2022-08-06T09:22:02.248Z,23.99
2022-08-06T09:25:07.942Z,23.79
2022-08-06T09:28:29.255Z,23.45
2022-08-06T09:31:44.811Z,23.75
2022-08-06T09:34:50.676Z,24.04
2022-08-06T09:38:06.286Z,23.84
2022-08-06T09:41:15.652Z,23.63
2022-08-06T09:44:35.454Z,23.69
2022-08-06T09:47:39.473Z,23.56
2022-08-06T09:50:44.339Z,23.50
2022-08-06T09:54:05.586Z,23.34
2022-08-06T09:57:34.704Z,23.41
2022-08-06T10:00:39.794Z,23.36
2022-08-06T10:04:03.698Z,23.32
2022-08-06T10:07:06.354Z,23.31
2022-08-06T10:10:10.592Z,22.86
2022-08-06T10:13:20.190Z,22.52
2022-08-06T10:16:29.153Z,22.36
2022-08-06T10:19:35.990Z,22.15
2022-08-06T10:22:57.635Z,22.08
2022-08-06T10:26:05.574Z,22.52
2022-08-06T10:29:08.579Z,22.78
2022-08-06T10:32:16.287Z,22.87
2022-08-06T10:35:22.232Z,22.74
2022-08-06T10:38:35.117Z,22.79
2022-08-06T10:42:00.471Z,22.79
2022-08-06T10:45:08.092Z,22.61
2022-08-06T10:48:58.841Z,22.11
2022-08-06T10:51:56.122Z,22.08
2022-08-06T10:55:03.525Z,21.89
2022-08-06T10:58:06.007Z,21.98
2022-08-06T11:01:23.120Z,22.06
2022-08-06T11:04:32.598Z,22.25
2022-08-06T11:08:09.537Z,21.98
2022-08-06T11:12:20.779Z,22.04
2022-08-06T11:15:25.625Z,22.73
2022-08-06T11:18:31.531Z,22.67
2022-08-06T11:21:59.218Z,22.70
2022-08-06T11:25:25.252Z,22.93
2022-08-06T11:28:34.400Z,22.75
2022-08-06T11:31:56.512Z,22.26
2022-08-06T11:34:59.119Z,22.83
2022-08-06T11:38:25.028Z,22.52
2022-08-06T11:41:55.316Z,22.35
2022-08-06T11:45:06.265Z,22.41
2022-08-06T11:48:12.984Z,23.26
2022-08-06T11:51:42.463Z,22.98
2022-08-06T11:54:46.729Z,23.04
2022-08-06T11:57:51.658Z,23.45
2022-08-06T12:01:03.019Z,23.62
2022-08-06T12:04:33.737Z,23.94
2022-08-06T12:07:38.205Z,23.85
2022-08-06T12:11:36.260Z,23.28
2022-08-06T12:14:49.195Z,23.19
2022-08-06T12:18:18.737Z,23.98
2022-08-06T12:21:20.754Z,24.05
2022-08-06T12:24:45.528Z,23.99
2022-08-06T12:27:55.089Z,23.93
2022-08-06T12:30:57.241Z,23.74
2022-08-06T12:33:59.787Z,24.10
2022-08-06T12:37:02.136Z,24.49
2022-08-06T12:40:25.024Z,24.32
2022-08-06T12:43:46.392Z,24.26
2022-08-06T12:46:54.182Z,24.53
2022-08-06T12:49:56.436Z,24.34
2022-08-06T12:53:06.004Z,25.00
2022-08-06T12:56:29.158Z,25.42
2022-08-06T12:59:42.905Z,24.04
2022-08-06T13:02:48.701Z,24.60
2022-08-06T13:05:52.094Z,23.63
2022-08-06T13:08:55.390Z,23.92
2022-08-06T13:11:57.246Z,23.92
2022-08-06T13:15:09.986Z,23.75
2022-08-06T13:18:41.752Z,23.82
2022-08-06T13:21:56.856Z,23.65
2022-08-06T13:25:31.059Z,23.41
2022-08-06T13:28:38.373Z,23.39
2022-08-06T13:31:58.679Z,23.23
2022-08-06T13:35:08.065Z,23.46
2022-08-06T13:38:17.268Z,23.31
2022-08-06T13:41:29.663Z,23.48
2022-08-06T13:44:44.137Z,23.92
2022-08-06T13:47:58.529Z,23.87
2022-08-06T13:51:04.830Z,23.95
2022-08-06T13:54:18.825Z,23.95
2022-08-06T13:57:22.107Z,24.14
2022-08-06T14:00:25.557Z,24.06
2022-08-06T14:03:38.238Z,23.65
2022-08-06T14:06:44.802Z,23.34
2022-08-06T14:10:08.660Z,23.93
2022-08-06T14:13:18.266Z,23.95
2022-08-06T14:16:24.299Z,24.28
2022-08-06T14:20:08.904Z,23.99
2022-08-06T14:22:50.825Z,23.14
2022-08-06T14:26:03.262Z,23.23
2022-08-06T14:30:26.106Z,23.60
2022-08-06T14:32:31.353Z,23.34
2022-08-06T14:35:39.925Z,23.89
2022-08-06T14:38:49.484Z,24.10
2022-08-06T14:42:10.813Z,23.51
2022-08-06T14:45:14.917Z,23.34
2022-08-06T14:48:31.112Z,23.34
2022-08-06T14:52:18.041Z,23.58
2022-08-06T14:55:06.802Z,23.92
2022-08-06T14:58:10.963Z,24.08
2022-08-06T15:01:17.118Z,23.42
2022-08-06T15:04:24.743Z,22.72
2022-08-06T15:07:41.439Z,22.85
2022-08-06T15:10:44.498Z,23.58
2022-08-06T15:13:51.925Z,24.21
2022-08-06T15:17:29.958Z,23.46
2022-08-06T15:20:25.235Z,23.70
2022-08-06T15:23:44.862Z,22.87
2022-08-06T15:26:51.014Z,22.74
2022-08-06T15:29:52.991Z,22.76
2022-08-06T15:32:56.780Z,22.51
2022-08-06T15:35:59.898Z,22.41
2022-08-06T15:39:09.204Z,21.98
2022-08-06T15:42:12.468Z,21.94
2022-08-06T15:45:49.906Z,21.86
2022-08-06T15:48:46.866Z,21.64
2022-08-06T15:52:01.133Z,21.86
2022-08-06T15:55:16.466Z,21.65
2022-08-06T15:58:28.933Z,21.26
2022-08-06T16:01:52.187Z,20.97
2022-08-06T16:04:56.175Z,20.91
2022-08-06T16:07:58.546Z,20.98
2022-08-06T16:11:01.138Z,21.10
2022-08-06T16:14:11.896Z,20.94
2022-08-06T16:17:14.530Z,21.22
2022-08-06T16:20:36.466Z,20.85
2022-08-06T16:23:57.276Z,20.92
2022-08-06T16:27:04.648Z,20.88
2022-08-06T16:30:07.458Z,20.79
2022-08-06T16:33:11.774Z,20.74
2022-08-06T16:36:16.893Z,20.85
2022-08-06T16:39:35.044Z,20.63
2022-08-06T16:42:38.068Z,20.58
2022-08-06T16:45:40.427Z,20.46
2022-08-06T16:48:42.508Z,20.54
2022-08-06T16:52:41.919Z,20.15
2022-08-06T16:55:13.630Z,20.26
2022-08-06T16:58:34.971Z,20.41
2022-08-06T17:02:14.120Z,20.43
2022-08-06T17:05:03.672Z,20.23
2022-08-06T17:08:06.937Z,20.09
2022-08-06T17:11:45.283Z,20.06
2022-08-06T17:14:33.058Z,20.02
2022-08-06T17:17:37.478Z,20.24
2022-08-06T17:20:43.169Z,20.12
2022-08-06T17:23:53.420Z,20.06
2022-08-06T17:26:56.326Z,19.72
2022-08-06T17:29:58.535Z,19.75
2022-08-06T17:33:10.412Z,19.79
2022-08-06T17:39:39.590Z,19.76
2022-08-06T17:42:41.995Z,19.75
2022-08-06T17:45:52.440Z,19.63
2022-08-06T17:49:06.620Z,19.42
2022-08-06T17:52:10.314Z,19.40
2022-08-06T17:55:13.147Z,19.30
2022-08-06T17:58:38.281Z,19.20
2022-08-06T18:01:44.678Z,18.98
2022-08-06T18:04:48.706Z,19.19
2022-08-06T18:08:06.892Z,18.99
2022-08-06T18:11:14.205Z,18.94
2022-08-06T18:14:32.731Z,18.90
2022-08-06T18:17:47.538Z,18.67
2022-08-06T18:20:57.629Z,18.75
2022-08-06T18:24:25.469Z,18.76
2022-08-06T18:28:03.857Z,18.70
2022-08-06T18:30:50.249Z,18.62
2022-08-06T18:33:53.829Z,18.59
2022-08-06T18:36:56.431Z,18.61
2022-08-06T18:40:18.777Z,18.53
2022-08-06T18:43:22.560Z,18.48
2022-08-06T18:46:57.017Z,18.68
2022-08-06T18:49:51.632Z,18.48
2022-08-06T18:52:55.790Z,18.44
2022-08-06T18:56:04.417Z,18.48
2022-08-06T18:59:23.794Z,18.65
2022-08-06T19:02:32.434Z,18.52
2022-08-06T19:05:40.558Z,18.49
2022-08-06T19:08:52.272Z,18.44
2022-08-06T19:11:54.267Z,18.37
2022-08-06T19:14:56.896Z,18.44
2022-08-06T19:18:14.232Z,18.50
2022-08-06T19:21:19.891Z,18.32
2022-08-06T19:24:35.735Z,18.35
2022-08-06T19:28:30.856Z,18.42
2022-08-06T19:31:04.184Z,18.33
2022-08-06T19:34:09.192Z,18.28
2022-08-06T19:37:27.118Z,18.38
2022-08-06T19:40:53.052Z,18.29
2022-08-06T19:44:26.388Z,18.30
2022-08-06T19:47:32.944Z,18.20
2022-08-06T19:50:37.261Z,18.20
2022-08-06T19:53:40.364Z,18.25
2022-08-06T19:56:44.220Z,18.11
2022-08-06T20:00:52.183Z,18.10
2022-08-06T20:03:18.205Z,18.15
2022-08-06T20:06:40.150Z,18.19
2022-08-06T20:10:00.005Z,18.16
2022-08-06T20:13:06.506Z,18.11
2022-08-06T20:16:11.666Z,18.06
2022-08-06T20:19:14.310Z,18.08
2022-08-06T20:22:16.989Z,18.01
2022-08-06T20:25:23.800Z,18.06
2022-08-06T20:29:10.302Z,17.93
2022-08-06T20:31:55.350Z,17.95
2022-08-06T20:34:58.125Z,17.92
2022-08-06T20:38:03.349Z,18.04
2022-08-06T20:41:59.234Z,17.96
2022-08-06T20:44:31.681Z,18.06
2022-08-06T20:47:44.841Z,17.94
2022-08-06T20:50:50.515Z,18.05
2022-08-06T20:53:56.228Z,18.04
2022-08-06T20:57:04.291Z,17.99
2022-08-06T21:00:15.167Z,18.01
2022-08-06T21:05:10.340Z,18.05
2022-08-06T21:06:42.522Z,17.83
2022-08-06T21:09:48.333Z,18.00
2022-08-06T21:13:01.172Z,18.02
2022-08-06T21:16:05.584Z,18.10
2022-08-06T21:19:18.628Z,18.10
2022-08-06T21:22:20.790Z,18.04
2022-08-06T21:25:42.665Z,18.05
2022-08-06T21:28:54.069Z,18.07
2022-08-06T21:31:58.583Z,18.06
2022-08-06T21:35:00.760Z,18.14
2022-08-06T21:38:03.470Z,18.09
2022-08-06T21:41:50.058Z,18.05
2022-08-06T21:44:50.394Z,18.01
2022-08-06T21:47:53.314Z,18.01
2022-08-06T21:50:59.749Z,18.01
2022-08-06T21:54:04.118Z,17.98
2022-08-06T21:57:11.738Z,17.91
2022-08-06T22:00:35.063Z,17.87
2022-08-06T22:04:37.109Z,17.78
2022-08-06T22:06:59.746Z,17.79
2022-08-06T22:10:02.873Z,17.69
2022-08-06T22:13:15.841Z,17.78
2022-08-06T22:16:18.762Z,17.72
2022-08-06T22:19:39.191Z,17.75
2022-08-06T22:22:44.091Z,17.72
2022-08-06T22:25:54.664Z,17.64
2022-08-06T22:28:58.235Z,17.79
2022-08-06T22:32:04.780Z,17.81
2022-08-06T22:35:09.725Z,17.80
2022-08-06T22:38:20.453Z,17.73
2022-08-06T22:41:42.623Z,17.60
2022-08-06T22:45:48.281Z,17.59
2022-08-06T22:48:10.395Z,17.47
2022-08-06T22:51:18.873Z,17.41
2022-08-06T22:54:58.063Z,17.30
2022-08-06T22:59:01.817Z,17.27
2022-08-06T23:02:02.771Z,17.13
2022-08-06T23:04:41.142Z,17.19
2022-08-06T23:07:54.142Z,17.34
2022-08-06T23:10:56.567Z,17.29
2022-08-06T23:14:00.400Z,17.10
2022-08-06T23:17:09.402Z,17.26
2022-08-06T23:20:12.609Z,17.19
2022-08-06T23:23:29.157Z,17.12
2022-08-06T23:26:33.099Z,17.13
2022-08-06T23:29:57.620Z,17.07
2022-08-06T23:33:01.177Z,16.94
2022-08-06T23:36:07.938Z,16.87
2022-08-06T23:39:19.776Z,16.92
2022-08-06T23:42:23.049Z,16.82
2022-08-06T23:45:25.119Z,16.78
2022-08-06T23:48:28.335Z,16.88
2022-08-06T23:52:01.326Z,16.88
2022-08-06T23:54:54.109Z,16.82
2022-08-06T23:57:57.191Z,16.83
